sensor_id;sensor_type;location;lat;lon;timestamp;temperature;humidity
17284;DHT22;8760;52.248;20.952;2022-08-01T00:01:32;15.50;99.90
17284;DHT22;8760;52.248;20.952;2022-08-01T00:03:59;15.50;99.90
17284;DHT22;8760;52.248;20.952;2022-08-01T00:06:26;15.60;99.90
17284;DHT22;8760;52.248;20.952;2022-08-01T00:08:52;15.50;99.90
17284;DHT22;8760;52.248;20.952;2022-08-01T00:11:19;15.50;99.90
17284;DHT22;8760;52.248;20.952;2022-08-01T00:13:47;15.50;99.90
17284;DHT22;8760;52.248;20.952;2022-08-01T00:16:14;15.60;99.90
17284;DHT22;8760;52.248;20.952;2022-08-01T00:18:41;15.50;99.90
17284;DHT22;8760;52.248;20.952;2022-08-01T00:21:08;15.50;99.90
17284;DHT22;8760;52.248;20.952;2022-08-01T00:23:35;15.50;99.90
17284;DHT22;8760;52.248;20.952;2022-08-01T00:26:02;15.50;99.90
17284;DHT22;8760;52.248;20.952;2022-08-01T00:28:29;15.50;99.90
17284;DHT22;8760;52.248;20.952;2022-08-01T00:30:57;15.40;99.90
17284;DHT22;8760;52.248;20.952;2022-08-01T00:33:23;15.40;99.90
17284;DHT22;8760;52.248;20.952;2022-08-01T00:35:50;15.30;99.90
17284;DHT22;8760;52.248;20.952;2022-08-01T00:38:17;15.40;99.90
17284;DHT22;8760;52.248;20.952;2022-08-01T00:40:44;15.30;99.90
17284;DHT22;8760;52.248;20.952;2022-08-01T00:43:10;15.30;99.90
17284;DHT22;8760;52.248;20.952;2022-08-01T00:45:37;15.30;99.90
17284;DHT22;8760;52.248;20.952;2022-08-01T00:48:05;15.30;99.90
17284;DHT22;8760;52.248;20.952;2022-08-01T00:50:32;15.30;99.90
17284;DHT22;8760;52.248;20.952;2022-08-01T00:53:00;15.30;99.90
17284;DHT22;8760;52.248;20.952;2022-08-01T00:55:27;15.20;99.90
17284;DHT22;8760;52.248;20.952;2022-08-01T00:57:55;15.30;99.90
17284;DHT22;8760;52.248;20.952;2022-08-01T01:00:22;15.20;99.90
17284;DHT22;8760;52.248;20.952;2022-08-01T01:02:49;15.20;99.90
17284;DHT22;8760;52.248;20.952;2022-08-01T01:05:17;15.20;99.90
17284;DHT22;8760;52.248;20.952;2022-08-01T01:07:50;15.20;99.90
17284;DHT22;8760;52.248;20.952;2022-08-01T01:10:24;15.20;99.90
17284;DHT22;8760;52.248;20.952;2022-08-01T01:12:56;15.10;99.90
17284;DHT22;8760;52.248;20.952;2022-08-01T01:15:30;15.10;99.90
17284;DHT22;8760;52.248;20.952;2022-08-01T01:18:00;15.10;99.90
17284;DHT22;8760;52.248;20.952;2022-08-01T01:20:32;15.10;99.90
17284;DHT22;8760;52.248;20.952;2022-08-01T01:23:12;15.10;99.90
17284;DHT22;8760;52.248;20.952;2022-08-01T01:26:22;15.10;99.90
17284;DHT22;8760;52.248;20.952;2022-08-01T01:29:11;15.10;99.90
17284;DHT22;8760;52.248;20.952;2022-08-01T01:31:43;15.10;99.90
17284;DHT22;8760;52.248;20.952;2022-08-01T01:34:13;15.00;99.90
17284;DHT22;8760;52.248;20.952;2022-08-01T01:36:42;15.00;99.90
17284;DHT22;8760;52.248;20.952;2022-08-01T01:39:10;15.00;99.90
17284;DHT22;8760;52.248;20.952;2022-08-01T01:41:39;15.00;99.90
17284;DHT22;8760;52.248;20.952;2022-08-01T01:44:10;14.90;99.90
17284;DHT22;8760;52.248;20.952;2022-08-01T01:46:37;14.90;99.90
17284;DHT22;8760;52.248;20.952;2022-08-01T01:49:05;14.90;99.90
17284;DHT22;8760;52.248;20.952;2022-08-01T01:51:35;14.90;99.90
17284;DHT22;8760;52.248;20.952;2022-08-01T01:54:05;14.80;99.90
17284;DHT22;8760;52.248;20.952;2022-08-01T01:56:33;14.80;99.90
17284;DHT22;8760;52.248;20.952;2022-08-01T01:59:16;14.80;99.90
17284;DHT22;8760;52.248;20.952;2022-08-01T02:01:47;14.80;99.90
17284;DHT22;8760;52.248;20.952;2022-08-01T02:04:14;14.70;99.90
17284;DHT22;8760;52.248;20.952;2022-08-01T02:06:43;14.70;99.90
17284;DHT22;8760;52.248;20.952;2022-08-01T02:09:13;14.70;99.90
17284;DHT22;8760;52.248;20.952;2022-08-01T02:11:41;14.60;99.90
17284;DHT22;8760;52.248;20.952;2022-08-01T02:14:10;14.60;99.90
17284;DHT22;8760;52.248;20.952;2022-08-01T02:16:41;14.60;99.90
17284;DHT22;8760;52.248;20.952;2022-08-01T02:19:08;14.50;99.90
17284;DHT22;8760;52.248;20.952;2022-08-01T02:21:39;14.50;99.90
17284;DHT22;8760;52.248;20.952;2022-08-01T02:24:12;14.50;99.90
17284;DHT22;8760;52.248;20.952;2022-08-01T02:26:42;14.40;99.90
17284;DHT22;8760;52.248;20.952;2022-08-01T02:29:14;14.40;99.90
17284;DHT22;8760;52.248;20.952;2022-08-01T02:31:45;14.30;99.90
17284;DHT22;8760;52.248;20.952;2022-08-01T02:34:16;14.40;99.90
17284;DHT22;8760;52.248;20.952;2022-08-01T02:36:45;14.30;99.90
17284;DHT22;8760;52.248;20.952;2022-08-01T02:39:14;14.30;99.90
17284;DHT22;8760;52.248;20.952;2022-08-01T02:41:46;14.20;99.90
17284;DHT22;8760;52.248;20.952;2022-08-01T02:44:16;14.20;99.90
17284;DHT22;8760;52.248;20.952;2022-08-01T02:46:50;14.20;99.90
17284;DHT22;8760;52.248;20.952;2022-08-01T02:49:18;14.10;99.90
17284;DHT22;8760;52.248;20.952;2022-08-01T02:51:47;14.10;99.90
17284;DHT22;8760;52.248;20.952;2022-08-01T02:54:17;14.10;99.90
17284;DHT22;8760;52.248;20.952;2022-08-01T02:56:46;14.10;99.90
17284;DHT22;8760;52.248;20.952;2022-08-01T02:59:16;14.00;99.90
17284;DHT22;8760;52.248;20.952;2022-08-01T03:01:46;14.00;99.90
17284;DHT22;8760;52.248;20.952;2022-08-01T03:04:14;14.00;99.90
17284;DHT22;8760;52.248;20.952;2022-08-01T03:06:44;14.00;99.90
17284;DHT22;8760;52.248;20.952;2022-08-01T03:09:11;14.00;99.90
17284;DHT22;8760;52.248;20.952;2022-08-01T03:11:40;14.00;99.90
17284;DHT22;8760;52.248;20.952;2022-08-01T03:14:09;13.90;99.90
17284;DHT22;8760;52.248;20.952;2022-08-01T03:16:38;13.90;99.90
17284;DHT22;8760;52.248;20.952;2022-08-01T03:19:11;13.90;99.90
17284;DHT22;8760;52.248;20.952;2022-08-01T03:21:39;13.90;99.90
17284;DHT22;8760;52.248;20.952;2022-08-01T03:24:08;13.90;99.90
17284;DHT22;8760;52.248;20.952;2022-08-01T03:26:36;13.90;99.90
17284;DHT22;8760;52.248;20.952;2022-08-01T03:29:06;13.90;99.90
17284;DHT22;8760;52.248;20.952;2022-08-01T03:31:36;13.80;99.90
17284;DHT22;8760;52.248;20.952;2022-08-01T03:34:03;13.80;99.90
17284;DHT22;8760;52.248;20.952;2022-08-01T03:36:33;13.80;99.90
17284;DHT22;8760;52.248;20.952;2022-08-01T03:39:04;13.80;99.90
17284;DHT22;8760;52.248;20.952;2022-08-01T03:41:34;13.90;99.90
17284;DHT22;8760;52.248;20.952;2022-08-01T03:44:06;13.90;99.90
17284;DHT22;8760;52.248;20.952;2022-08-01T03:46:41;13.90;99.90
17284;DHT22;8760;52.248;20.952;2022-08-01T03:49:13;13.90;99.90
17284;DHT22;8760;52.248;20.952;2022-08-01T03:51:44;14.00;99.90
17284;DHT22;8760;52.248;20.952;2022-08-01T03:54:14;14.00;99.90
17284;DHT22;8760;52.248;20.952;2022-08-01T03:56:43;14.00;99.90
17284;DHT22;8760;52.248;20.952;2022-08-01T03:59:10;14.00;99.90
17284;DHT22;8760;52.248;20.952;2022-08-01T04:01:37;14.10;99.90
17284;DHT22;8760;52.248;20.952;2022-08-01T04:04:04;14.10;99.90
17284;DHT22;8760;52.248;20.952;2022-08-01T04:06:31;14.20;99.90
17284;DHT22;8760;52.248;20.952;2022-08-01T04:08:59;14.20;99.90
17284;DHT22;8760;52.248;20.952;2022-08-01T04:11:27;14.30;99.90
17284;DHT22;8760;52.248;20.952;2022-08-01T04:13:54;14.30;99.90
17284;DHT22;8760;52.248;20.952;2022-08-01T04:16:22;14.40;99.90
17284;DHT22;8760;52.248;20.952;2022-08-01T04:18:49;14.30;99.90
17284;DHT22;8760;52.248;20.952;2022-08-01T04:21:18;14.40;99.90
17284;DHT22;8760;52.248;20.952;2022-08-01T04:23:46;14.40;99.90
17284;DHT22;8760;52.248;20.952;2022-08-01T04:26:16;14.40;99.90
17284;DHT22;8760;52.248;20.952;2022-08-01T04:28:45;14.50;99.90
17284;DHT22;8760;52.248;20.952;2022-08-01T04:31:13;14.50;99.90
17284;DHT22;8760;52.248;20.952;2022-08-01T04:33:45;14.50;99.90
17284;DHT22;8760;52.248;20.952;2022-08-01T04:36:16;14.50;99.90
17284;DHT22;8760;52.248;20.952;2022-08-01T04:38:46;14.60;99.90
17284;DHT22;8760;52.248;20.952;2022-08-01T04:41:17;14.60;99.90
17284;DHT22;8760;52.248;20.952;2022-08-01T04:43:45;14.60;99.90
17284;DHT22;8760;52.248;20.952;2022-08-01T04:46:13;14.70;99.90
17284;DHT22;8760;52.248;20.952;2022-08-01T04:48:40;14.80;99.90
17284;DHT22;8760;52.248;20.952;2022-08-01T04:51:11;14.80;99.90
17284;DHT22;8760;52.248;20.952;2022-08-01T04:53:40;14.90;99.90
17284;DHT22;8760;52.248;20.952;2022-08-01T04:56:07;14.90;99.90
17284;DHT22;8760;52.248;20.952;2022-08-01T04:58:35;15.00;99.90
17284;DHT22;8760;52.248;20.952;2022-08-01T05:01:02;15.00;99.90
17284;DHT22;8760;52.248;20.952;2022-08-01T05:03:29;15.00;99.90
17284;DHT22;8760;52.248;20.952;2022-08-01T05:05:55;15.00;99.90
17284;DHT22;8760;52.248;20.952;2022-08-01T05:08:22;15.00;99.90
17284;DHT22;8760;52.248;20.952;2022-08-01T05:10:49;15.00;99.90
17284;DHT22;8760;52.248;20.952;2022-08-01T05:13:15;15.00;99.90
17284;DHT22;8760;52.248;20.952;2022-08-01T05:15:44;14.90;99.90
17284;DHT22;8760;52.248;20.952;2022-08-01T05:18:10;15.00;99.90
17284;DHT22;8760;52.248;20.952;2022-08-01T05:20:37;14.90;99.90
17284;DHT22;8760;52.248;20.952;2022-08-01T05:23:04;14.90;99.90
17284;DHT22;8760;52.248;20.952;2022-08-01T05:25:31;14.80;99.90
17284;DHT22;8760;52.248;20.952;2022-08-01T05:27:58;14.80;99.90
17284;DHT22;8760;52.248;20.952;2022-08-01T05:30:25;14.80;99.90
17284;DHT22;8760;52.248;20.952;2022-08-01T05:32:53;14.90;99.90
17284;DHT22;8760;52.248;20.952;2022-08-01T05:35:20;15.10;99.90
17284;DHT22;8760;52.248;20.952;2022-08-01T05:37:46;15.20;99.90
17284;DHT22;8760;52.248;20.952;2022-08-01T05:40:13;15.30;99.90
17284;DHT22;8760;52.248;20.952;2022-08-01T05:42:40;15.50;99.90
17284;DHT22;8760;52.248;20.952;2022-08-01T05:45:07;15.60;99.90
17284;DHT22;8760;52.248;20.952;2022-08-01T05:47:34;15.70;99.90
17284;DHT22;8760;52.248;20.952;2022-08-01T05:50:03;15.80;99.90
17284;DHT22;8760;52.248;20.952;2022-08-01T05:52:30;15.80;99.90
17284;DHT22;8760;52.248;20.952;2022-08-01T05:54:57;16.00;99.90
17284;DHT22;8760;52.248;20.952;2022-08-01T05:57:24;16.10;99.90
17284;DHT22;8760;52.248;20.952;2022-08-01T05:59:50;16.20;99.90
17284;DHT22;8760;52.248;20.952;2022-08-01T06:02:17;16.30;99.90
17284;DHT22;8760;52.248;20.952;2022-08-01T06:04:44;16.50;99.90
17284;DHT22;8760;52.248;20.952;2022-08-01T06:07:12;16.60;99.90
17284;DHT22;8760;52.248;20.952;2022-08-01T06:09:39;16.70;99.90
17284;DHT22;8760;52.248;20.952;2022-08-01T06:12:06;16.70;99.90
17284;DHT22;8760;52.248;20.952;2022-08-01T06:14:33;16.90;99.90
17284;DHT22;8760;52.248;20.952;2022-08-01T06:17:00;17.00;99.90
17284;DHT22;8760;52.248;20.952;2022-08-01T06:19:26;17.10;99.90
17284;DHT22;8760;52.248;20.952;2022-08-01T06:21:53;17.20;99.90
17284;DHT22;8760;52.248;20.952;2022-08-01T06:24:21;17.30;99.90
17284;DHT22;8760;52.248;20.952;2022-08-01T06:26:49;17.20;99.90
17284;DHT22;8760;52.248;20.952;2022-08-01T06:29:16;17.40;99.90
17284;DHT22;8760;52.248;20.952;2022-08-01T06:31:42;17.50;99.90
17284;DHT22;8760;52.248;20.952;2022-08-01T06:34:09;17.60;99.90
17284;DHT22;8760;52.248;20.952;2022-08-01T06:36:36;17.80;99.90
17284;DHT22;8760;52.248;20.952;2022-08-01T06:39:03;17.90;99.90
17284;DHT22;8760;52.248;20.952;2022-08-01T06:41:31;18.10;99.90
17284;DHT22;8760;52.248;20.952;2022-08-01T06:43:58;18.50;99.90
17284;DHT22;8760;52.248;20.952;2022-08-01T06:46:27;18.70;99.90
17284;DHT22;8760;52.248;20.952;2022-08-01T06:48:54;19.00;99.90
17284;DHT22;8760;52.248;20.952;2022-08-01T06:51:21;19.30;99.90
17284;DHT22;8760;52.248;20.952;2022-08-01T06:53:47;19.70;99.90
17284;DHT22;8760;52.248;20.952;2022-08-01T06:56:14;20.20;99.90
17284;DHT22;8760;52.248;20.952;2022-08-01T06:58:42;20.30;1.00
17284;DHT22;8760;52.248;20.952;2022-08-01T07:01:09;20.70;1.00
17284;DHT22;8760;52.248;20.952;2022-08-01T07:03:36;20.90;1.00
17284;DHT22;8760;52.248;20.952;2022-08-01T07:06:03;21.10;1.00
17284;DHT22;8760;52.248;20.952;2022-08-01T07:08:30;21.50;99.90
17284;DHT22;8760;52.248;20.952;2022-08-01T07:10:56;21.80;99.90
17284;DHT22;8760;52.248;20.952;2022-08-01T07:13:25;21.80;1.00
17284;DHT22;8760;52.248;20.952;2022-08-01T07:15:53;21.80;99.90
17284;DHT22;8760;52.248;20.952;2022-08-01T07:18:20;21.90;1.00
17284;DHT22;8760;52.248;20.952;2022-08-01T07:20:47;22.10;99.90
17284;DHT22;8760;52.248;20.952;2022-08-01T07:23:14;22.40;1.00
17284;DHT22;8760;52.248;20.952;2022-08-01T07:25:40;22.50;99.90
17284;DHT22;8760;52.248;20.952;2022-08-01T07:28:07;22.60;1.00
17284;DHT22;8760;52.248;20.952;2022-08-01T07:30:34;22.50;1.00
17284;DHT22;8760;52.248;20.952;2022-08-01T07:33:03;22.80;1.00
17284;DHT22;8760;52.248;20.952;2022-08-01T07:35:29;23.10;99.90
17284;DHT22;8760;52.248;20.952;2022-08-01T07:37:56;23.50;1.00
17284;DHT22;8760;52.248;20.952;2022-08-01T07:40:23;23.60;99.90
17284;DHT22;8760;52.248;20.952;2022-08-01T07:42:49;24.00;1.00
17284;DHT22;8760;52.248;20.952;2022-08-01T07:45:16;24.20;1.00
17284;DHT22;8760;52.248;20.952;2022-08-01T07:47:43;24.30;1.00
17284;DHT22;8760;52.248;20.952;2022-08-01T07:50:11;24.30;99.90
17284;DHT22;8760;52.248;20.952;2022-08-01T07:52:38;24.00;99.90
17284;DHT22;8760;52.248;20.952;2022-08-01T07:55:07;24.30;99.90
17284;DHT22;8760;52.248;20.952;2022-08-01T07:57:34;24.30;99.90
17284;DHT22;8760;52.248;20.952;2022-08-01T08:00:02;24.50;1.00
17284;DHT22;8760;52.248;20.952;2022-08-01T08:02:29;24.80;99.90
17284;DHT22;8760;52.248;20.952;2022-08-01T08:04:56;25.10;99.90
17284;DHT22;8760;52.248;20.952;2022-08-01T08:07:24;25.10;99.90
17284;DHT22;8760;52.248;20.952;2022-08-01T08:09:51;25.60;99.90
17284;DHT22;8760;52.248;20.952;2022-08-01T08:12:18;25.90;14.70
17284;DHT22;8760;52.248;20.952;2022-08-01T08:14:45;26.30;1.00
17284;DHT22;8760;52.248;20.952;2022-08-01T08:17:11;26.00;1.00
17284;DHT22;8760;52.248;20.952;2022-08-01T08:19:38;25.50;1.00
17284;DHT22;8760;52.248;20.952;2022-08-01T08:22:06;25.30;1.00
17284;DHT22;8760;52.248;20.952;2022-08-01T08:24:34;25.50;1.00
17284;DHT22;8760;52.248;20.952;2022-08-01T08:27:02;25.80;1.00
17284;DHT22;8760;52.248;20.952;2022-08-01T08:29:30;25.90;1.00
17284;DHT22;8760;52.248;20.952;2022-08-01T08:31:58;25.70;1.00
17284;DHT22;8760;52.248;20.952;2022-08-01T08:34:25;25.40;1.00
17284;DHT22;8760;52.248;20.952;2022-08-01T08:36:53;25.10;1.00
17284;DHT22;8760;52.248;20.952;2022-08-01T08:39:20;25.40;1.00
17284;DHT22;8760;52.248;20.952;2022-08-01T08:41:49;25.70;1.00
17284;DHT22;8760;52.248;20.952;2022-08-01T08:44:16;25.40;1.00
17284;DHT22;8760;52.248;20.952;2022-08-01T08:46:45;25.70;1.00
17284;DHT22;8760;52.248;20.952;2022-08-01T08:49:17;26.30;1.00
17284;DHT22;8760;52.248;20.952;2022-08-01T08:51:47;26.80;1.00
17284;DHT22;8760;52.248;20.952;2022-08-01T08:54:16;27.00;1.00
17284;DHT22;8760;52.248;20.952;2022-08-01T08:56:43;27.00;1.00
17284;DHT22;8760;52.248;20.952;2022-08-01T08:59:12;27.00;1.00
17284;DHT22;8760;52.248;20.952;2022-08-01T09:01:40;27.20;1.00
17284;DHT22;8760;52.248;20.952;2022-08-01T09:04:07;27.40;1.00
17284;DHT22;8760;52.248;20.952;2022-08-01T09:06:34;27.80;1.00
17284;DHT22;8760;52.248;20.952;2022-08-01T09:09:00;28.40;1.00
17284;DHT22;8760;52.248;20.952;2022-08-01T09:11:27;27.80;1.00
17284;DHT22;8760;52.248;20.952;2022-08-01T09:14:06;27.50;1.00
17284;DHT22;8760;52.248;20.952;2022-08-01T09:16:35;27.50;1.00
17284;DHT22;8760;52.248;20.952;2022-08-01T09:19:11;27.60;1.00
17284;DHT22;8760;52.248;20.952;2022-08-01T09:21:39;28.10;1.00
17284;DHT22;8760;52.248;20.952;2022-08-01T09:24:14;28.50;99.90
17284;DHT22;8760;52.248;20.952;2022-08-01T09:26:42;28.30;99.90
17284;DHT22;8760;52.248;20.952;2022-08-01T09:29:18;28.30;99.90
17284;DHT22;8760;52.248;20.952;2022-08-01T09:31:47;28.70;99.90
17284;DHT22;8760;52.248;20.952;2022-08-01T09:34:15;28.60;99.90
17284;DHT22;8760;52.248;20.952;2022-08-01T09:36:48;28.40;99.90
17284;DHT22;8760;52.248;20.952;2022-08-01T09:39:19;28.70;99.90
17284;DHT22;8760;52.248;20.952;2022-08-01T09:41:46;29.00;99.90
17284;DHT22;8760;52.248;20.952;2022-08-01T09:44:14;29.70;99.90
17284;DHT22;8760;52.248;20.952;2022-08-01T09:46:52;30.30;99.90
17284;DHT22;8760;52.248;20.952;2022-08-01T09:49:30;30.30;99.90
17284;DHT22;8760;52.248;20.952;2022-08-01T09:52:09;30.70;99.90
17284;DHT22;8760;52.248;20.952;2022-08-01T09:54:36;30.70;99.90
17284;DHT22;8760;52.248;20.952;2022-08-01T09:57:11;31.20;99.90
17284;DHT22;8760;52.248;20.952;2022-08-01T09:59:40;31.40;99.90
17284;DHT22;8760;52.248;20.952;2022-08-01T10:02:09;31.80;99.90
17284;DHT22;8760;52.248;20.952;2022-08-01T10:04:46;31.90;99.90
17284;DHT22;8760;52.248;20.952;2022-08-01T10:07:12;31.60;99.90
17284;DHT22;8760;52.248;20.952;2022-08-01T10:09:41;31.30;99.90
17284;DHT22;8760;52.248;20.952;2022-08-01T10:12:09;30.60;99.90
17284;DHT22;8760;52.248;20.952;2022-08-01T10:14:37;30.30;99.90
17284;DHT22;8760;52.248;20.952;2022-08-01T10:17:08;29.90;99.90
17284;DHT22;8760;52.248;20.952;2022-08-01T10:19:37;30.00;99.90
17284;DHT22;8760;52.248;20.952;2022-08-01T10:22:08;30.00;99.90
17284;DHT22;8760;52.248;20.952;2022-08-01T10:24:37;29.70;99.90
17284;DHT22;8760;52.248;20.952;2022-08-01T10:27:07;28.90;99.90
17284;DHT22;8760;52.248;20.952;2022-08-01T10:29:37;28.80;99.90
17284;DHT22;8760;52.248;20.952;2022-08-01T10:32:05;29.40;99.90
17284;DHT22;8760;52.248;20.952;2022-08-01T10:34:36;29.90;99.90
17284;DHT22;8760;52.248;20.952;2022-08-01T10:37:04;29.90;99.90
17284;DHT22;8760;52.248;20.952;2022-08-01T10:39:31;30.20;99.90
17284;DHT22;8760;52.248;20.952;2022-08-01T10:41:58;30.50;99.90
17284;DHT22;8760;52.248;20.952;2022-08-01T10:44:27;30.30;99.90
17284;DHT22;8760;52.248;20.952;2022-08-01T10:46:57;29.00;99.90
17284;DHT22;8760;52.248;20.952;2022-08-01T10:49:29;28.50;99.90
17284;DHT22;8760;52.248;20.952;2022-08-01T10:51:58;28.70;99.90
17284;DHT22;8760;52.248;20.952;2022-08-01T10:54:25;28.70;99.90
17284;DHT22;8760;52.248;20.952;2022-08-01T10:56:53;28.50;99.90
17284;DHT22;8760;52.248;20.952;2022-08-01T10:59:22;27.90;99.90
17284;DHT22;8760;52.248;20.952;2022-08-01T11:01:56;27.70;99.90
17284;DHT22;8760;52.248;20.952;2022-08-01T11:04:34;27.90;99.90
17284;DHT22;8760;52.248;20.952;2022-08-01T11:07:06;28.10;99.90
17284;DHT22;8760;52.248;20.952;2022-08-01T11:09:41;28.30;99.90
17284;DHT22;8760;52.248;20.952;2022-08-01T11:12:10;28.30;99.90
17284;DHT22;8760;52.248;20.952;2022-08-01T11:17:59;28.30;99.90
17284;DHT22;8760;52.248;20.952;2022-08-01T11:20:28;28.30;99.90
17284;DHT22;8760;52.248;20.952;2022-08-01T11:23:25;28.30;99.90
17284;DHT22;8760;52.248;20.952;2022-08-01T11:26:13;28.20;99.90
17284;DHT22;8760;52.248;20.952;2022-08-01T11:28:42;28.20;99.90
17284;DHT22;8760;52.248;20.952;2022-08-01T11:31:30;28.20;99.90
17284;DHT22;8760;52.248;20.952;2022-08-01T11:33:57;28.00;99.90
17284;DHT22;8760;52.248;20.952;2022-08-01T11:36:25;27.90;99.90
17284;DHT22;8760;52.248;20.952;2022-08-01T11:39:13;27.80;99.90
17284;DHT22;8760;52.248;20.952;2022-08-01T11:41:41;27.60;99.90
17284;DHT22;8760;52.248;20.952;2022-08-01T11:44:10;27.20;99.90
17284;DHT22;8760;52.248;20.952;2022-08-01T11:46:58;26.60;99.90
17284;DHT22;8760;52.248;20.952;2022-08-01T11:49:28;26.30;99.90
17284;DHT22;8760;52.248;20.952;2022-08-01T11:51:59;25.90;99.90
17284;DHT22;8760;52.248;20.952;2022-08-01T11:54:29;25.70;99.90
17284;DHT22;8760;52.248;20.952;2022-08-01T11:56:57;25.50;99.90
17284;DHT22;8760;52.248;20.952;2022-08-01T11:59:25;25.20;99.90
17284;DHT22;8760;52.248;20.952;2022-08-01T12:01:52;25.00;99.90
17284;DHT22;8760;52.248;20.952;2022-08-01T12:04:19;25.00;1.00
17284;DHT22;8760;52.248;20.952;2022-08-01T12:06:46;24.90;1.00
17284;DHT22;8760;52.248;20.952;2022-08-01T12:09:20;25.00;1.00
17284;DHT22;8760;52.248;20.952;2022-08-01T12:11:50;25.00;1.00
17284;DHT22;8760;52.248;20.952;2022-08-01T12:14:19;24.80;1.00
17284;DHT22;8760;52.248;20.952;2022-08-01T12:16:51;24.60;1.00
17284;DHT22;8760;52.248;20.952;2022-08-01T12:19:20;24.60;1.00
17284;DHT22;8760;52.248;20.952;2022-08-01T12:22:07;24.60;1.00
17284;DHT22;8760;52.248;20.952;2022-08-01T12:24:34;24.60;1.00
17284;DHT22;8760;52.248;20.952;2022-08-01T12:27:02;24.80;1.00
17284;DHT22;8760;52.248;20.952;2022-08-01T12:29:37;25.00;1.00
17284;DHT22;8760;52.248;20.952;2022-08-01T12:32:21;25.10;1.00
17284;DHT22;8760;52.248;20.952;2022-08-01T12:34:48;25.20;1.00
17284;DHT22;8760;52.248;20.952;2022-08-01T12:37:15;25.30;1.00
17284;DHT22;8760;52.248;20.952;2022-08-01T12:39:43;25.20;1.00
17284;DHT22;8760;52.248;20.952;2022-08-01T12:42:12;25.10;1.00
17284;DHT22;8760;52.248;20.952;2022-08-01T12:44:41;25.10;1.00
17284;DHT22;8760;52.248;20.952;2022-08-01T12:47:08;25.30;1.00
17284;DHT22;8760;52.248;20.952;2022-08-01T12:49:37;25.40;1.00
17284;DHT22;8760;52.248;20.952;2022-08-01T12:52:04;25.60;1.00
17284;DHT22;8760;52.248;20.952;2022-08-01T12:54:35;25.80;1.00
17284;DHT22;8760;52.248;20.952;2022-08-01T12:57:23;25.90;1.00
17284;DHT22;8760;52.248;20.952;2022-08-01T12:59:53;26.00;1.00
17284;DHT22;8760;52.248;20.952;2022-08-01T13:02:19;25.80;1.00
17284;DHT22;8760;52.248;20.952;2022-08-01T13:04:49;25.70;1.00
17284;DHT22;8760;52.248;20.952;2022-08-01T13:07:16;25.60;1.00
17284;DHT22;8760;52.248;20.952;2022-08-01T13:09:49;25.60;1.00
17284;DHT22;8760;52.248;20.952;2022-08-01T13:12:16;25.60;1.00
17284;DHT22;8760;52.248;20.952;2022-08-01T13:14:44;25.80;1.00
17284;DHT22;8760;52.248;20.952;2022-08-01T13:17:11;26.00;1.00
17284;DHT22;8760;52.248;20.952;2022-08-01T13:19:44;26.10;1.00
17284;DHT22;8760;52.248;20.952;2022-08-01T13:22:12;26.10;1.00
17284;DHT22;8760;52.248;20.952;2022-08-01T13:24:39;26.10;1.00
17284;DHT22;8760;52.248;20.952;2022-08-01T13:27:06;25.90;1.00
17284;DHT22;8760;52.248;20.952;2022-08-01T13:29:34;25.80;1.00
17284;DHT22;8760;52.248;20.952;2022-08-01T13:32:14;25.90;1.00
17284;DHT22;8760;52.248;20.952;2022-08-01T13:34:41;25.90;1.00
17284;DHT22;8760;52.248;20.952;2022-08-01T13:37:07;26.00;1.00
17284;DHT22;8760;52.248;20.952;2022-08-01T13:39:34;26.10;1.00
17284;DHT22;8760;52.248;20.952;2022-08-01T13:42:07;26.20;1.00
17284;DHT22;8760;52.248;20.952;2022-08-01T13:44:34;26.00;1.00
17284;DHT22;8760;52.248;20.952;2022-08-01T13:47:02;25.90;1.00
17284;DHT22;8760;52.248;20.952;2022-08-01T13:49:30;25.80;1.00
17284;DHT22;8760;52.248;20.952;2022-08-01T13:51:57;25.80;1.00
17284;DHT22;8760;52.248;20.952;2022-08-01T13:54:24;25.90;1.00
17284;DHT22;8760;52.248;20.952;2022-08-01T13:56:51;25.90;1.00
17284;DHT22;8760;52.248;20.952;2022-08-01T13:59:19;26.10;1.00
17284;DHT22;8760;52.248;20.952;2022-08-01T14:01:45;26.10;1.00
17284;DHT22;8760;52.248;20.952;2022-08-01T14:04:12;26.20;1.00
17284;DHT22;8760;52.248;20.952;2022-08-01T14:06:41;26.20;99.90
17284;DHT22;8760;52.248;20.952;2022-08-01T14:09:08;26.10;1.00
17284;DHT22;8760;52.248;20.952;2022-08-01T14:11:35;26.10;1.00
17284;DHT22;8760;52.248;20.952;2022-08-01T14:14:02;26.10;1.00
17284;DHT22;8760;52.248;20.952;2022-08-01T14:16:29;26.20;1.00
17284;DHT22;8760;52.248;20.952;2022-08-01T14:18:55;26.20;1.00
17284;DHT22;8760;52.248;20.952;2022-08-01T14:21:22;26.30;1.00
17284;DHT22;8760;52.248;20.952;2022-08-01T14:23:50;26.30;1.00
17284;DHT22;8760;52.248;20.952;2022-08-01T14:26:17;26.30;1.00
17284;DHT22;8760;52.248;20.952;2022-08-01T14:28:44;26.30;1.00
17284;DHT22;8760;52.248;20.952;2022-08-01T14:31:10;26.20;1.00
17284;DHT22;8760;52.248;20.952;2022-08-01T14:33:37;26.10;99.90
17284;DHT22;8760;52.248;20.952;2022-08-01T14:36:04;25.90;1.00
17284;DHT22;8760;52.248;20.952;2022-08-01T14:38:31;26.00;1.00
17284;DHT22;8760;52.248;20.952;2022-08-01T14:40:59;26.20;99.90
17284;DHT22;8760;52.248;20.952;2022-08-01T14:43:28;26.20;99.90
17284;DHT22;8760;52.248;20.952;2022-08-01T14:45:58;26.20;99.90
17284;DHT22;8760;52.248;20.952;2022-08-01T14:48:25;26.10;99.90
17284;DHT22;8760;52.248;20.952;2022-08-01T14:50:51;26.00;99.90
17284;DHT22;8760;52.248;20.952;2022-08-01T14:53:18;25.80;99.90
17284;DHT22;8760;52.248;20.952;2022-08-01T14:55:45;25.70;99.90
17284;DHT22;8760;52.248;20.952;2022-08-01T14:58:13;25.60;99.90
17284;DHT22;8760;52.248;20.952;2022-08-01T15:00:40;25.60;1.00
17284;DHT22;8760;52.248;20.952;2022-08-01T15:03:07;25.50;1.00
17284;DHT22;8760;52.248;20.952;2022-08-01T15:05:33;25.60;1.00
17284;DHT22;8760;52.248;20.952;2022-08-01T15:08:01;25.80;1.00
17284;DHT22;8760;52.248;20.952;2022-08-01T15:10:28;25.70;1.00
17284;DHT22;8760;52.248;20.952;2022-08-01T15:12:57;25.70;1.00
17284;DHT22;8760;52.248;20.952;2022-08-01T15:15:26;25.60;1.00
17284;DHT22;8760;52.248;20.952;2022-08-01T15:17:53;25.50;1.00
17284;DHT22;8760;52.248;20.952;2022-08-01T15:20:20;25.40;1.00
17284;DHT22;8760;52.248;20.952;2022-08-01T15:22:47;25.30;1.00
17284;DHT22;8760;52.248;20.952;2022-08-01T15:25:14;25.20;1.00
17284;DHT22;8760;52.248;20.952;2022-08-01T15:27:41;25.20;1.00
17284;DHT22;8760;52.248;20.952;2022-08-01T15:30:08;25.30;1.00
17284;DHT22;8760;52.248;20.952;2022-08-01T15:32:36;25.30;1.00
17284;DHT22;8760;52.248;20.952;2022-08-01T15:35:04;25.30;1.00
17284;DHT22;8760;52.248;20.952;2022-08-01T15:37:31;25.10;1.00
17284;DHT22;8760;52.248;20.952;2022-08-01T15:39:58;25.20;1.00
17284;DHT22;8760;52.248;20.952;2022-08-01T15:42:25;25.30;1.00
17284;DHT22;8760;52.248;20.952;2022-08-01T15:44:51;25.50;1.00
17284;DHT22;8760;52.248;20.952;2022-08-01T15:47:18;25.70;1.00
17284;DHT22;8760;52.248;20.952;2022-08-01T15:49:46;25.80;1.00